createdAt,value
2019-03-02T00:00:29.550Z,19.92
2019-03-02T00:03:00.726Z,21.35
2019-03-02T00:05:32.819Z,20.57
2019-03-02T00:08:08.196Z,21.68
2019-03-02T00:10:40.817Z,18.20
2019-03-02T00:13:11.548Z,18.20
2019-03-02T00:15:42.833Z,19.90
2019-03-02T00:18:12.899Z,20.00
2019-03-02T00:20:42.811Z,19.45
2019-03-02T00:23:15.810Z,21.97
2019-03-02T00:25:44.482Z,21.95
2019-03-02T00:28:14.622Z,21.27
2019-03-02T00:30:45.443Z,22.58
2019-03-02T00:33:16.610Z,22.15
2019-03-02T00:35:47.311Z,22.40
2019-03-02T00:38:17.239Z,20.70
2019-03-02T00:40:47.243Z,21.90
2019-03-02T00:43:17.331Z,22.32
2019-03-02T00:45:48.862Z,22.15
2019-03-02T00:48:19.130Z,22.13
2019-03-02T00:50:49.164Z,23.20
2019-03-02T00:53:19.046Z,22.50
2019-03-02T00:55:48.979Z,23.32
2019-03-02T00:58:19.207Z,21.77
2019-03-02T01:00:49.968Z,20.88
2019-03-02T01:03:20.967Z,20.30
2019-03-02T01:05:51.171Z,20.57
2019-03-02T01:08:21.034Z,20.75
2019-03-02T01:10:51.040Z,21.45
2019-03-02T01:13:23.082Z,20.90
2019-03-02T01:15:53.742Z,20.68
2019-03-02T01:18:24.258Z,20.00
2019-03-02T01:20:54.279Z,20.00
2019-03-02T01:23:27.565Z,23.05
2019-03-02T01:25:56.145Z,21.10
2019-03-02T01:28:26.061Z,19.37
2019-03-02T01:30:56.074Z,21.93
2019-03-02T01:33:28.607Z,19.17
2019-03-02T01:35:57.892Z,20.43
2019-03-02T01:38:28.142Z,20.85
2019-03-02T01:41:19.096Z,21.27
2019-03-02T01:43:51.427Z,18.90
2019-03-02T01:46:23.325Z,20.10
2019-03-02T01:49:01.604Z,18.57
2019-03-02T01:51:33.934Z,18.85
2019-03-02T01:54:05.235Z,17.95
2019-03-02T01:56:37.769Z,17.73
2019-03-02T01:59:12.644Z,19.57
2019-03-02T02:01:46.113Z,18.77
2019-03-02T02:04:22.598Z,17.37
2019-03-02T02:06:53.287Z,17.30
2019-03-02T02:09:28.159Z,17.55
2019-03-02T02:12:01.110Z,16.27
2019-03-02T02:14:36.525Z,18.02
2019-03-02T02:17:06.389Z,16.40
2019-03-02T02:19:38.633Z,16.90
2019-03-02T02:22:08.337Z,17.92
2019-03-02T02:24:38.246Z,16.70
2019-03-02T02:27:08.158Z,15.50
2019-03-02T02:29:40.679Z,16.50
2019-03-02T02:32:09.934Z,16.73
2019-03-02T02:34:39.866Z,17.48
2019-03-02T02:37:09.694Z,16.90
2019-03-02T02:39:39.603Z,15.20
2019-03-02T02:42:09.612Z,16.67
2019-03-02T02:44:39.656Z,18.15
2019-03-02T02:47:12.403Z,16.65
2019-03-02T02:49:44.434Z,15.98
2019-03-02T02:52:13.347Z,17.37
2019-03-02T02:54:43.355Z,15.78
2019-03-02T02:57:13.122Z,16.48
2019-03-02T02:59:43.010Z,17.42
2019-03-02T03:02:13.040Z,17.75
2019-03-02T03:04:42.949Z,15.78
2019-03-02T03:07:14.289Z,15.00
2019-03-02T03:09:50.851Z,16.32
2019-03-02T03:12:22.658Z,16.30
2019-03-02T03:14:54.309Z,15.40
2019-03-02T03:17:28.277Z,16.45
2019-03-02T03:19:56.369Z,18.15
2019-03-02T03:22:26.288Z,16.48
2019-03-02T03:24:56.310Z,16.90
2019-03-02T03:27:26.331Z,16.87
2019-03-02T03:29:56.663Z,16.23
2019-03-02T03:32:26.672Z,18.15
2019-03-02T03:34:56.536Z,16.40
2019-03-02T03:37:26.568Z,15.72
2019-03-02T03:39:56.593Z,15.70
2019-03-02T03:43:18.495Z,17.62
2019-03-02T03:45:52.864Z,18.48
2019-03-02T03:48:29.432Z,15.45
2019-03-02T03:50:59.574Z,16.55
2019-03-02T03:53:31.831Z,16.07
2019-03-02T03:56:06.783Z,15.88
2019-03-02T03:58:40.044Z,15.08
2019-03-02T04:01:17.316Z,17.25
2019-03-02T04:03:47.207Z,14.98
2019-03-02T04:06:18.148Z,15.63
2019-03-02T04:08:48.128Z,16.55
2019-03-02T04:12:08.026Z,17.10
2019-03-02T04:14:37.910Z,15.08
2019-03-02T04:17:45.016Z,15.78
2019-03-02T04:20:19.966Z,16.30
2019-03-02T04:22:50.951Z,15.50
2019-03-02T04:25:21.025Z,15.65
2019-03-02T04:27:54.291Z,14.95
2019-03-02T04:30:30.712Z,16.52
2019-03-02T04:32:54.665Z,14.40
2019-03-02T04:35:24.505Z,15.13
2019-03-02T04:37:56.457Z,15.18
2019-03-02T04:40:27.817Z,16.57
2019-03-02T04:42:58.395Z,15.28
2019-03-02T04:45:28.292Z,16.82
2019-03-02T04:47:59.852Z,16.10
2019-03-02T04:50:30.043Z,17.70
2019-03-02T04:52:59.925Z,15.78
2019-03-02T04:55:29.784Z,14.55
2019-03-02T04:57:59.638Z,15.83
2019-03-02T05:00:32.046Z,15.30
2019-03-02T05:03:02.679Z,16.67
2019-03-02T05:05:32.963Z,15.20
2019-03-02T05:08:05.186Z,15.45
2019-03-02T05:10:34.751Z,16.17
2019-03-02T05:13:05.988Z,17.52
2019-03-02T05:15:36.124Z,15.03
2019-03-02T05:18:06.058Z,15.88
2019-03-02T05:20:37.793Z,16.73
2019-03-02T05:23:08.216Z,17.95
2019-03-02T05:25:38.093Z,15.75
2019-03-02T05:28:09.998Z,17.35
2019-03-02T05:30:39.911Z,17.15
2019-03-02T05:33:09.855Z,16.32
2019-03-02T05:35:39.760Z,16.80
2019-03-02T05:38:11.721Z,18.12
2019-03-02T05:40:41.775Z,16.25
2019-03-02T05:43:11.671Z,16.50
2019-03-02T05:45:41.536Z,18.32
2019-03-02T05:48:11.451Z,16.90
2019-03-02T05:50:41.380Z,16.60
2019-03-02T05:53:11.212Z,17.20
2019-03-02T05:55:41.233Z,17.75
2019-03-02T05:58:12.510Z,16.60
2019-03-02T06:00:43.016Z,17.87
2019-03-02T06:03:13.146Z,17.27
2019-03-02T06:05:43.023Z,19.32
2019-03-02T06:08:13.242Z,19.73
2019-03-02T06:10:43.171Z,19.07
2019-03-02T06:13:13.429Z,18.32
2019-03-02T06:15:46.369Z,19.27
2019-03-02T06:18:15.148Z,19.40
2019-03-02T06:20:45.063Z,18.65
2019-03-02T06:23:14.924Z,20.37
2019-03-02T06:25:44.864Z,16.93
2019-03-02T06:28:14.928Z,19.27
2019-03-02T06:30:45.026Z,20.55
2019-03-02T06:33:35.188Z,19.23
2019-03-02T06:36:08.731Z,18.25
2019-03-02T06:38:37.742Z,18.67
2019-03-02T06:41:07.805Z,17.65
2019-03-02T06:43:37.753Z,16.75
2019-03-02T06:46:07.578Z,17.98
2019-03-02T06:48:37.512Z,17.15
2019-03-02T06:51:07.808Z,18.50
2019-03-02T06:53:39.226Z,19.98
2019-03-02T06:56:09.079Z,17.55
2019-03-02T06:58:38.898Z,18.05
2019-03-02T07:01:08.922Z,17.30
2019-03-02T07:03:38.834Z,18.67
2019-03-02T07:06:11.638Z,17.67
2019-03-02T07:08:40.524Z,17.80
2019-03-02T07:11:10.516Z,18.25
2019-03-02T07:13:40.519Z,18.55
2019-03-02T07:16:10.430Z,17.77
2019-03-02T07:19:02.717Z,18.00
2019-03-02T07:21:32.551Z,19.48
2019-03-02T07:24:02.514Z,17.85
2019-03-02T07:26:32.334Z,18.52
2019-03-02T07:29:02.359Z,19.32
2019-03-02T07:31:32.225Z,17.12
2019-03-02T07:34:04.825Z,19.20
2019-03-02T07:36:34.841Z,19.90
2019-03-02T07:39:07.127Z,18.02
2019-03-02T07:41:37.151Z,18.70
2019-03-02T07:44:15.238Z,18.48
2019-03-02T07:46:47.990Z,19.20
2019-03-02T07:49:25.108Z,18.80
2019-03-02T07:52:07.509Z,18.40
2019-03-02T07:54:42.488Z,18.50
2019-03-02T07:57:23.282Z,16.00
2019-03-02T07:59:54.538Z,16.60
2019-03-02T08:02:25.720Z,18.73
2019-03-02T08:05:03.269Z,18.27
2019-03-02T08:07:39.327Z,16.95
2019-03-02T08:10:10.896Z,14.38
2019-03-02T08:12:46.628Z,16.17
2019-03-02T08:15:20.306Z,17.25
2019-03-02T08:17:52.472Z,14.78
2019-03-02T08:20:24.414Z,14.43
2019-03-02T08:22:54.731Z,15.15
2019-03-02T08:25:24.808Z,14.30
2019-03-02T08:27:56.098Z,15.05
2019-03-02T08:30:29.775Z,14.80
2019-03-02T08:32:59.193Z,14.20
2019-03-02T08:35:30.507Z,14.38
2019-03-02T08:38:05.444Z,15.48
2019-03-02T08:40:33.908Z,13.15
2019-03-02T08:43:04.254Z,13.40
2019-03-02T08:45:34.281Z,13.55
2019-03-02T08:48:04.817Z,13.30
2019-03-02T08:50:34.931Z,12.53
2019-03-02T08:53:05.033Z,11.18
2019-03-02T08:55:35.153Z,12.40
2019-03-02T08:58:05.064Z,12.00
2019-03-02T09:00:35.053Z,12.30
2019-03-02T09:03:08.146Z,12.85
2019-03-02T09:05:45.117Z,11.73
2019-03-02T09:08:13.163Z,11.65
2019-03-02T09:10:49.218Z,12.28
2019-03-02T09:13:19.010Z,11.00
2019-03-02T09:15:53.370Z,12.03
2019-03-02T09:18:23.889Z,12.85
2019-03-02T09:20:54.451Z,11.60
2019-03-02T09:23:52.963Z,11.78
2019-03-02T09:26:24.883Z,12.60
2019-03-02T09:28:57.478Z,13.22
2019-03-02T09:31:28.417Z,11.43
2019-03-02T09:34:31.588Z,10.35
2019-03-02T09:37:03.775Z,11.15
2019-03-02T09:39:38.405Z,11.57
2019-03-02T09:42:21.443Z,10.05
2019-03-02T09:44:51.596Z,11.00
2019-03-02T09:47:22.607Z,11.18
2019-03-02T09:49:57.259Z,11.25
2019-03-02T09:52:35.353Z,11.35
2019-03-02T09:55:18.496Z,9.65
2019-03-02T09:58:10.384Z,9.33
2019-03-02T10:00:43.151Z,9.40
2019-03-02T10:03:14.136Z,9.63
2019-03-02T10:05:46.616Z,10.10
2019-03-02T10:08:18.170Z,9.00
2019-03-02T10:10:48.388Z,9.75
2019-03-02T10:13:18.763Z,9.45
2019-03-02T10:16:00.567Z,9.05
2019-03-02T10:18:32.300Z,8.90
2019-03-02T10:21:06.102Z,9.58
2019-03-02T10:23:38.928Z,10.63
2019-03-02T10:26:09.444Z,9.20
2019-03-02T10:28:39.628Z,8.23
2019-03-02T10:31:10.880Z,8.55
2019-03-02T10:33:41.510Z,10.15
2019-03-02T10:36:11.507Z,10.00
2019-03-02T10:38:41.458Z,9.28
2019-03-02T10:41:11.486Z,9.55
2019-03-02T10:43:42.744Z,9.83
2019-03-02T10:46:12.892Z,9.35
2019-03-02T10:48:43.122Z,9.85
2019-03-02T10:51:13.256Z,10.03
2019-03-02T10:53:43.346Z,9.75
2019-03-02T10:56:13.515Z,9.98
2019-03-02T10:58:43.475Z,9.75
2019-03-02T11:01:14.241Z,10.45
2019-03-02T11:03:46.535Z,9.90
2019-03-02T11:06:33.080Z,10.65
2019-03-02T11:09:28.895Z,11.22
2019-03-02T11:12:17.616Z,9.95
2019-03-02T11:15:23.594Z,12.43
2019-03-02T11:18:13.610Z,11.80
2019-03-02T11:20:51.838Z,10.85
2019-03-02T11:23:39.571Z,11.90
2019-03-02T11:26:31.814Z,11.30
2019-03-02T11:29:27.256Z,10.03
2019-03-02T11:32:09.565Z,12.25
2019-03-02T11:34:51.329Z,11.95
2019-03-02T11:37:36.918Z,12.35
2019-03-02T11:40:21.747Z,10.32
2019-03-02T11:43:05.133Z,11.75
2019-03-02T11:46:02.225Z,10.98
2019-03-02T11:48:39.265Z,11.22
2019-03-02T11:51:28.032Z,9.65
2019-03-02T11:54:10.936Z,9.95
2019-03-02T11:57:03.262Z,11.38
2019-03-02T11:59:47.181Z,10.03
2019-03-02T12:02:48.417Z,9.30
2019-03-02T12:05:36.690Z,9.65
2019-03-02T12:08:26.122Z,9.83
2019-03-02T12:11:18.422Z,9.35
2019-03-02T12:14:11.336Z,7.65
2019-03-02T12:17:09.950Z,8.08
2019-03-02T12:20:08.519Z,8.68
2019-03-02T12:22:43.794Z,9.15
2019-03-02T12:25:35.153Z,8.70
2019-03-02T12:28:22.468Z,9.43
2019-03-02T12:31:12.127Z,8.08
2019-03-02T12:33:59.871Z,8.23
2019-03-02T12:36:53.199Z,8.83
2019-03-02T12:39:41.693Z,8.90
2019-03-02T12:42:35.702Z,8.70
2019-03-02T12:45:25.791Z,9.25
2019-03-02T12:48:21.367Z,8.75
2019-03-02T12:50:58.919Z,9.38
2019-03-02T12:53:47.561Z,7.92
2019-03-02T12:56:29.069Z,8.43
2019-03-02T12:59:08.422Z,7.55
2019-03-02T13:02:04.064Z,6.55
2019-03-02T13:04:51.876Z,6.55
2019-03-02T13:07:39.439Z,6.92
2019-03-02T13:10:20.301Z,6.60
2019-03-02T13:13:21.693Z,6.15
2019-03-02T13:16:19.821Z,5.70
2019-03-02T13:19:17.504Z,5.95
2019-03-02T13:21:55.575Z,4.95
2019-03-02T13:24:57.923Z,5.12
2019-03-02T13:27:43.958Z,5.00
2019-03-02T13:30:35.259Z,5.83
2019-03-02T13:33:30.002Z,5.87
2019-03-02T13:36:09.061Z,5.92
2019-03-02T13:39:14.438Z,6.97
2019-03-02T13:41:52.464Z,5.10
2019-03-02T13:44:44.797Z,5.42
2019-03-02T13:47:38.733Z,5.90
2019-03-02T13:50:31.036Z,5.35
2019-03-02T13:53:19.889Z,5.50
2019-03-02T13:56:30.041Z,5.30
2019-03-02T13:59:23.198Z,4.90
2019-03-02T14:02:07.628Z,6.10
2019-03-02T14:05:04.943Z,5.80
2019-03-02T14:07:37.481Z,5.62
2019-03-02T14:10:27.937Z,5.70
2019-03-02T14:13:21.310Z,5.78
2019-03-02T14:16:01.195Z,6.30
2019-03-02T14:18:42.684Z,6.25
2019-03-02T14:21:34.417Z,6.65
2019-03-02T14:24:38.799Z,5.75
2019-03-02T14:27:19.879Z,6.58
2019-03-02T14:29:58.709Z,5.70
2019-03-02T14:32:51.537Z,6.50
2019-03-02T14:35:41.977Z,7.50
2019-03-02T14:38:46.355Z,6.33
2019-03-02T14:41:24.377Z,6.33
2019-03-02T14:44:30.211Z,6.45
2019-03-02T14:47:17.756Z,7.03
2019-03-02T14:50:07.973Z,7.40
2019-03-02T14:52:57.554Z,7.58
2019-03-02T14:55:49.822Z,8.08
2019-03-02T14:58:39.518Z,6.92
2019-03-02T15:01:22.216Z,7.00
2019-03-02T15:04:11.712Z,8.55
2019-03-02T15:07:22.264Z,7.62
2019-03-02T15:10:15.952Z,7.67
2019-03-02T15:13:22.170Z,7.72
2019-03-02T15:16:10.561Z,7.25
2019-03-02T15:18:53.462Z,7.05
2019-03-02T15:21:47.768Z,7.30
2019-03-02T15:24:31.705Z,7.25
2019-03-02T15:27:39.532Z,7.53
2019-03-02T15:30:34.189Z,8.00
2019-03-02T15:33:30.356Z,7.53
2019-03-02T15:36:19.616Z,7.05
2019-03-02T15:39:12.873Z,7.08
2019-03-02T15:42:18.051Z,7.87
2019-03-02T15:44:53.743Z,6.75
2019-03-02T15:47:47.452Z,6.35
2019-03-02T15:50:31.553Z,6.10
2019-03-02T15:53:11.221Z,6.53
2019-03-02T15:56:23.354Z,6.12
2019-03-02T15:59:08.380Z,6.20
2019-03-02T16:02:05.671Z,6.30
2019-03-02T16:04:55.592Z,6.72
2019-03-02T16:07:40.984Z,5.30
2019-03-02T16:10:30.529Z,6.58
2019-03-02T16:13:32.324Z,6.03
2019-03-02T16:16:30.703Z,5.90
2019-03-02T16:19:12.855Z,6.60
2019-03-02T16:22:05.161Z,6.37
2019-03-02T16:24:53.210Z,6.20
2019-03-02T16:27:45.215Z,6.40
2019-03-02T16:30:34.694Z,6.85
2019-03-02T16:33:31.202Z,7.20
2019-03-02T16:36:28.355Z,6.17
2019-03-02T16:39:16.238Z,6.20
2019-03-02T16:41:57.544Z,5.25
2019-03-02T16:44:49.618Z,6.62
2019-03-02T16:47:32.100Z,5.83
2019-03-02T16:50:24.281Z,6.10
2019-03-02T16:53:16.170Z,5.50
2019-03-02T16:56:00.494Z,5.25
2019-03-02T16:58:56.903Z,7.03
2019-03-02T17:01:45.034Z,5.75
2019-03-02T17:04:34.961Z,6.65
2019-03-02T17:07:15.439Z,5.67
2019-03-02T17:09:56.838Z,6.60
2019-03-02T17:12:36.415Z,5.62
2019-03-02T17:15:26.893Z,5.75
2019-03-02T17:18:16.453Z,5.78
2019-03-02T17:21:06.194Z,5.30
2019-03-02T17:23:52.742Z,5.97
2019-03-02T17:26:42.106Z,6.35
2019-03-02T17:29:35.879Z,5.90
2019-03-02T17:32:28.210Z,5.67
2019-03-02T17:35:21.538Z,5.85
2019-03-02T17:38:12.150Z,5.58
2019-03-02T17:41:07.235Z,6.40
2019-03-02T17:44:03.902Z,5.75
2019-03-02T17:47:08.600Z,5.28
2019-03-02T17:50:04.171Z,5.35
2019-03-02T17:52:54.405Z,5.90
2019-03-02T17:55:50.429Z,4.90
2019-03-02T17:58:56.559Z,5.67
2019-03-02T18:02:09.742Z,5.40
2019-03-02T18:04:53.081Z,6.25
2019-03-02T18:08:40.056Z,6.37
2019-03-02T18:11:29.154Z,4.95
2019-03-02T18:14:20.130Z,5.08
2019-03-02T18:17:08.655Z,5.30
2019-03-02T18:19:39.772Z,5.05
2019-03-02T18:22:11.663Z,5.70
2019-03-02T18:24:41.674Z,5.28
2019-03-02T18:27:11.769Z,4.55
2019-03-02T18:29:41.687Z,4.40
2019-03-02T18:32:11.946Z,4.30
2019-03-02T18:34:42.494Z,4.60
2019-03-02T18:37:15.830Z,5.00
2019-03-02T18:39:45.907Z,5.50
2019-03-02T18:42:16.093Z,4.80
2019-03-02T18:44:46.028Z,4.00
2019-03-02T18:47:19.840Z,5.00
2019-03-02T18:50:10.847Z,4.83
2019-03-02T18:53:00.472Z,4.35
2019-03-02T18:55:31.193Z,4.65
2019-03-02T18:58:01.129Z,4.72
2019-03-02T19:00:34.489Z,4.03
2019-03-02T19:03:05.241Z,4.00
2019-03-02T19:05:35.327Z,4.33
2019-03-02T19:08:05.215Z,3.95
2019-03-02T19:10:35.396Z,4.50
2019-03-02T19:13:08.479Z,5.05
2019-03-02T19:15:37.650Z,4.30
2019-03-02T19:18:07.651Z,4.50
2019-03-02T19:20:37.561Z,3.87
2019-03-02T19:23:07.700Z,4.40
2019-03-02T19:25:37.715Z,4.33
2019-03-02T19:28:07.634Z,3.42
2019-03-02T19:30:37.644Z,4.33
2019-03-02T19:33:07.769Z,4.78
2019-03-02T19:35:38.033Z,3.90
2019-03-02T19:38:11.320Z,4.28
2019-03-02T19:40:41.279Z,3.85
2019-03-02T19:43:11.259Z,3.87
2019-03-02T19:51:35.864Z,3.85
2019-03-02T19:58:02.630Z,4.65
2019-03-02T20:00:37.157Z,3.72
2019-03-02T20:03:09.845Z,3.77
2019-03-02T20:05:50.321Z,3.87
2019-03-02T20:08:25.777Z,3.50
2019-03-02T20:11:07.353Z,3.58
2019-03-02T20:13:50.586Z,3.40
2019-03-02T20:16:41.247Z,3.87
2019-03-02T20:19:19.447Z,3.50
2019-03-02T20:21:55.593Z,3.55
2019-03-02T20:24:30.392Z,3.50
2019-03-02T20:27:02.169Z,4.22
2019-03-02T20:30:00.613Z,3.62
2019-03-02T20:32:31.200Z,3.67
2019-03-02T20:35:03.580Z,4.25
2019-03-02T20:37:36.793Z,3.80
2019-03-02T20:40:18.928Z,3.10
2019-03-02T20:42:56.255Z,3.10
2019-03-02T20:48:53.077Z,3.60
2019-03-02T20:51:25.189Z,3.62
2019-03-02T20:53:55.428Z,3.98
2019-03-02T20:56:27.935Z,3.67
2019-03-02T20:59:17.952Z,2.70
2019-03-02T21:02:29.753Z,3.00
2019-03-02T21:05:00.292Z,3.35
2019-03-02T21:07:30.516Z,3.40
2019-03-02T21:10:00.713Z,4.42
2019-03-02T21:12:30.711Z,3.80
2019-03-02T21:15:00.656Z,4.22
2019-03-02T21:17:30.539Z,4.60
2019-03-02T21:20:00.455Z,3.52
2019-03-02T21:22:30.366Z,3.50
2019-03-02T21:25:00.528Z,3.22
2019-03-02T21:27:31.404Z,3.20
2019-03-02T21:30:02.391Z,3.30
2019-03-02T21:32:32.813Z,2.70
2019-03-02T21:35:06.191Z,2.75
2019-03-02T21:37:36.979Z,3.65
2019-03-02T21:40:53.833Z,3.17
2019-03-02T21:57:59.877Z,2.22
2019-03-02T22:00:39.348Z,2.30
2019-03-02T22:03:09.293Z,2.10
2019-03-02T22:05:39.160Z,2.60
2019-03-02T22:08:09.049Z,2.40
2019-03-02T22:10:47.103Z,2.30
2019-03-02T22:13:20.267Z,2.00
2019-03-02T22:15:51.038Z,1.98
2019-03-02T22:18:21.464Z,1.90
2019-03-02T22:20:52.310Z,1.95
2019-03-02T22:23:22.895Z,1.52
2019-03-02T22:26:00.565Z,1.75
2019-03-02T22:28:31.228Z,2.20
2019-03-02T22:31:06.727Z,2.60
2019-03-02T22:33:37.639Z,1.72
2019-03-02T22:36:09.515Z,2.50
2019-03-02T22:38:42.254Z,1.98
2019-03-02T22:41:12.394Z,2.87
2019-03-02T22:44:37.716Z,1.37
2019-03-02T22:47:17.513Z,1.70
2019-03-02T22:49:49.882Z,3.12
2019-03-02T22:52:36.132Z,1.67
2019-03-02T22:55:19.119Z,1.60
2019-03-02T22:57:55.798Z,2.20
2019-03-02T23:01:41.663Z,2.25
2019-03-02T23:04:19.678Z,3.35
2019-03-02T23:06:53.696Z,1.75
2019-03-02T23:09:47.019Z,1.30
2019-03-02T23:12:30.920Z,1.90
2019-03-02T23:28:33.769Z,1.90
2019-03-02T23:31:07.266Z,1.80
2019-03-02T23:33:40.918Z,1.75
2019-03-02T23:36:17.255Z,1.50
2019-03-02T23:38:53.950Z,1.80
2019-03-02T23:41:29.832Z,2.00
2019-03-02T23:44:01.422Z,2.58
2019-03-02T23:46:31.731Z,1.30
2019-03-02T23:49:01.653Z,1.60
2019-03-02T23:51:31.568Z,1.22
2019-03-02T23:54:04.150Z,1.60
2019-03-02T23:57:06.337Z,1.80
2019-03-02T23:59:58.330Z,1.55
